Time;durP1;ratioP1;P1;durP2;ratioP2;P2;SDS_P1;SDS_P2;PMS_P1;PMS_P2;Temp;Humidity;BMP_temperature;BMP_pressure;BME280_temperature;BME280_humidity;BME280_pressure;Samples;Min_cycle;Max_cycle;Signal;HPM_P1;HPM_P2
2023/09/03 00:02:11;;;;;;;8.10;5.37;;;14.80;99.90;;;;;;5030659;28;20201;-81
2023/09/03 00:04:37;;;;;;;9.30;6.37;;;14.80;99.90;;;;;;5028770;28;20232;-82
2023/09/03 00:07:04;;;;;;;10.57;6.80;;;14.70;99.90;;;;;;5018022;28;20210;-83
2023/09/03 00:09:33;;;;;;;9.63;6.47;;;14.70;99.90;;;;;;5029729;28;20209;-80
2023/09/03 00:12:00;;;;;;;7.93;5.73;;;14.60;99.90;;;;;;5005365;28;20651;-82
2023/09/03 00:14:27;;;;;;;9.27;6.10;;;14.60;99.90;;;;;;5026256;28;20216;-82
2023/09/03 00:16:54;;;;;;;10.43;6.43;;;14.80;99.90;;;;;;5030176;28;20699;-81
2023/09/03 00:19:21;;;;;;;7.73;5.50;;;14.50;99.90;;;;;;5029629;28;20213;-82
2023/09/03 00:21:47;;;;;;;8.63;6.23;;;14.50;99.90;;;;;;5017311;28;20744;-82
2023/09/03 00:24:14;;;;;;;12.17;6.63;;;14.50;99.90;;;;;;5020060;28;20624;-82
2023/09/03 00:26:42;;;;;;;7.80;5.80;;;14.40;99.90;;;;;;5018435;28;20210;-82
2023/09/03 00:29:08;;;;;;;9.07;6.43;;;14.30;99.90;;;;;;5010413;28;20210;-83
2023/09/03 00:31:36;;;;;;;8.73;6.17;;;14.40;99.90;;;;;;5000104;28;20212;-82
2023/09/03 00:34:02;;;;;;;8.87;6.17;;;14.30;99.90;;;;;;5013031;28;20653;-81
2023/09/03 00:36:29;;;;;;;9.30;5.73;;;14.30;99.90;;;;;;5021956;28;20272;-82
2023/09/03 00:38:57;;;;;;;10.23;6.47;;;14.20;99.90;;;;;;5027998;28;20298;-81
2023/09/03 00:41:24;;;;;;;8.40;5.93;;;14.20;99.90;;;;;;5012078;28;20211;-81
2023/09/03 00:43:51;;;;;;;9.27;6.23;;;14.20;99.90;;;;;;5009784;28;20238;-82
2023/09/03 00:46:18;;;;;;;7.70;6.03;;;14.10;99.90;;;;;;5017111;28;20255;-82
2023/09/03 00:48:45;;;;;;;9.00;6.17;;;14.10;99.90;;;;;;5029982;28;20198;-81
2023/09/03 00:51:12;;;;;;;7.87;5.93;;;14.10;99.90;;;;;;5012445;28;20283;-81
2023/09/03 00:53:43;;;;;;;8.90;5.90;;;14.00;99.90;;;;;;5029267;28;20198;-81
2023/09/03 00:56:10;;;;;;;8.60;5.43;;;14.00;99.90;;;;;;5023889;28;20203;-81
2023/09/03 00:58:38;;;;;;;9.90;6.17;;;14.00;99.90;;;;;;5024968;28;20209;-81
2023/09/03 01:01:05;;;;;;;9.40;6.37;;;14.00;99.90;;;;;;5029730;28;20218;-81
2023/09/03 01:03:32;;;;;;;8.90;6.17;;;14.00;99.90;;;;;;5029944;28;20214;-81
2023/09/03 01:05:59;;;;;;;9.27;6.70;;;13.90;99.90;;;;;;5017513;28;20225;-81
2023/09/03 01:08:27;;;;;;;9.00;5.87;;;13.90;99.90;;;;;;5029904;28;20285;-83
2023/09/03 01:11:11;;;;;;;12.70;6.70;;;13.90;99.90;;;;;;5022190;28;20217;-82
2023/09/03 01:13:48;;;;;;;8.83;6.30;;;13.80;99.90;;;;;;5013219;28;20202;-82
2023/09/03 01:16:27;;;;;;;10.67;5.50;;;13.80;99.90;;;;;;5011295;28;20202;-82
2023/09/03 01:18:57;;;;;;;8.40;5.67;;;13.80;99.90;;;;;;5029438;28;20259;-82
2023/09/03 01:21:35;;;;;;;9.27;6.33;;;13.80;99.90;;;;;;5029536;28;20202;-82
2023/09/03 01:24:23;;;;;;;8.97;6.27;;;13.80;99.90;;;;;;5012846;28;20286;-83
2023/09/03 01:27:03;;;;;;;8.77;5.83;;;13.70;99.90;;;;;;5023952;28;20232;-82
2023/09/03 01:29:31;;;;;;;8.27;5.70;;;13.70;99.90;;;;;;5016531;28;20260;-83
2023/09/03 01:32:00;;;;;;;8.43;6.37;;;13.70;99.90;;;;;;5023775;28;20739;-82
2023/09/03 01:34:28;;;;;;;9.03;6.10;;;13.70;99.90;;;;;;5021323;28;20202;-81
2023/09/03 01:36:55;;;;;;;8.80;6.20;;;13.80;99.90;;;;;;5010892;28;20272;-81
2023/09/03 01:39:21;;;;;;;9.30;6.47;;;13.60;99.90;;;;;;5005277;28;20207;-81
2023/09/03 01:41:49;;;;;;;10.00;6.23;;;13.60;99.90;;;;;;5013324;28;20206;-82
2023/09/03 01:44:16;;;;;;;9.60;6.53;;;13.60;99.90;;;;;;5022418;28;20283;-81
2023/09/03 01:46:49;;;;;;;10.07;6.43;;;13.60;99.90;;;;;;5032533;28;20226;-80
2023/09/03 01:49:54;;;;;;;11.90;6.63;;;13.60;99.90;;;;;;5014898;28;20634;-82
2023/09/03 01:52:40;;;;;;;9.00;5.97;;;13.60;99.90;;;;;;5004125;28;20208;-82
2023/09/03 01:55:09;;;;;;;9.73;6.30;;;13.80;99.90;;;;;;5032607;28;20206;-82
2023/09/03 01:57:43;;;;;;;11.80;6.70;;;13.60;99.90;;;;;;5015717;28;20214;-83
2023/09/03 02:00:15;;;;;;;9.17;6.37;;;13.50;99.90;;;;;;5032524;28;20272;-83
2023/09/03 02:02:47;;;;;;;11.30;7.10;;;13.60;99.90;;;;;;5041754;28;20739;-83
2023/09/03 02:05:15;;;;;;;11.47;7.03;;;13.80;99.90;;;;;;5012784;28;20229;-82
2023/09/03 02:07:42;;;;;;;9.20;6.13;;;13.60;99.90;;;;;;5031432;28;20593;-81
2023/09/03 02:10:10;;;;;;;10.00;6.07;;;13.10;99.90;;;;;;5032828;28;20205;-83
2023/09/03 02:12:37;;;;;;;12.83;6.30;;;13.70;99.90;;;;;;5013027;28;20194;-81
2023/09/03 02:15:04;;;;;;;12.30;6.80;;;13.60;99.90;;;;;;5032580;28;20209;-81
2023/09/03 02:17:31;;;;;;;9.43;6.67;;;13.60;99.90;;;;;;5022194;28;20203;-82
2023/09/03 02:19:58;;;;;;;9.77;6.73;;;13.60;99.90;;;;;;5015103;28;20699;-80
2023/09/03 02:22:25;;;;;;;10.10;6.17;;;13.60;99.90;;;;;;5032064;28;20516;-81
2023/09/03 02:24:52;;;;;;;8.60;6.60;;;13.60;99.90;;;;;;5032197;28;20379;-83
2023/09/03 02:27:18;;;;;;;11.87;6.47;;;13.60;99.90;;;;;;5032087;28;20235;-82
2023/09/03 02:29:45;;;;;;;8.80;6.37;;;13.60;99.90;;;;;;5020097;28;20556;-83
2023/09/03 02:32:12;;;;;;;11.17;7.10;;;13.60;99.90;;;;;;5032211;28;20201;-82
2023/09/03 02:34:39;;;;;;;12.17;7.13;;;13.60;99.90;;;;;;5014071;28;20253;-82
2023/09/03 02:37:07;;;;;;;11.17;7.03;;;13.50;99.90;;;;;;5003065;28;20199;-82
2023/09/03 02:39:34;;;;;;;15.23;7.77;;;13.60;99.90;;;;;;5021979;28;20233;-82
2023/09/03 02:42:02;;;;;;;12.07;7.30;;;13.30;99.90;;;;;;5029323;28;20262;-83
2023/09/03 02:44:29;;;;;;;12.63;7.70;;;13.80;99.90;;;;;;5019456;28;20225;-82
2023/09/03 02:46:56;;;;;;;11.37;7.37;;;13.60;99.90;;;;;;5029809;28;20233;-82
2023/09/03 02:49:23;;;;;;;12.70;7.50;;;13.60;99.90;;;;;;5013697;28;20202;-82
2023/09/03 02:51:50;;;;;;;11.23;7.00;;;13.60;99.90;;;;;;5031052;28;20522;-82
2023/09/03 02:54:19;;;;;;;10.87;6.93;;;13.70;99.90;;;;;;5031497;28;20213;-82
2023/09/03 02:56:46;;;;;;;10.03;6.50;;;13.20;99.90;;;;;;5025393;28;20202;-83
2023/09/03 02:59:12;;;;;;;11.53;7.27;;;13.70;99.90;;;;;;5031243;28;20198;-82
2023/09/03 03:01:39;;;;;;;12.07;7.30;;;13.60;99.90;;;;;;5031677;28;20198;-83
2023/09/03 03:04:06;;;;;;;13.10;7.00;;;13.60;99.90;;;;;;5013866;28;20206;-81
2023/09/03 03:06:33;;;;;;;13.07;6.77;;;13.60;99.90;;;;;;5027359;28;20225;-83
2023/09/03 03:09:00;;;;;;;9.40;6.43;;;13.60;99.90;;;;;;5019771;28;20225;-84
2023/09/03 03:11:27;;;;;;;10.60;6.70;;;13.70;99.90;;;;;;5031083;28;20626;-82
2023/09/03 03:13:53;;;;;;;13.30;7.10;;;13.50;99.90;;;;;;5028431;28;20206;-84
2023/09/03 03:16:20;;;;;;;10.50;6.77;;;13.50;99.90;;;;;;5024736;28;20643;-82
2023/09/03 03:18:47;;;;;;;10.90;7.20;;;13.50;99.90;;;;;;5030552;28;20297;-82
2023/09/03 03:21:17;;;;;;;12.27;7.30;;;13.50;99.90;;;;;;5030053;28;20569;-82
2023/09/03 03:23:47;;;;;;;12.17;7.43;;;13.50;99.90;;;;;;4993802;28;20218;-82
2023/09/03 03:26:14;;;;;;;10.87;6.10;;;13.80;99.90;;;;;;5011401;28;20674;-83
2023/09/03 03:28:41;;;;;;;9.57;6.20;;;13.50;99.90;;;;;;4993530;28;20210;-82
2023/09/03 03:31:16;;;;;;;11.33;6.60;;;13.50;99.90;;;;;;5027826;28;20202;-82
2023/09/03 03:33:45;;;;;;;10.83;6.20;;;13.40;99.90;;;;;;5030769;28;20434;-82
2023/09/03 03:36:18;;;;;;;12.57;6.97;;;13.50;99.90;;;;;;5021803;28;20206;-81
2023/09/03 03:38:45;;;;;;;11.20;6.60;;;13.40;99.90;;;;;;5030436;28;20597;-82
2023/09/03 03:41:19;;;;;;;9.80;6.33;;;13.40;99.90;;;;;;5013348;28;20241;-82
2023/09/03 03:43:48;;;;;;;12.50;7.03;;;13.30;99.90;;;;;;5030260;28;20696;-81
2023/09/03 03:46:17;;;;;;;14.77;8.03;;;13.30;99.90;;;;;;5030413;28;20717;-81
2023/09/03 03:48:45;;;;;;;13.00;7.53;;;13.20;99.90;;;;;;5016733;28;20210;-82
2023/09/03 03:51:12;;;;;;;13.60;7.00;;;13.20;99.90;;;;;;4993035;28;20214;-82
2023/09/03 03:53:40;;;;;;;11.17;6.73;;;13.20;99.90;;;;;;5011374;28;20233;-84
2023/09/03 03:56:09;;;;;;;11.07;6.40;;;13.20;99.90;;;;;;5018114;28;20289;-83
2023/09/03 03:58:39;;;;;;;15.00;7.60;;;13.10;99.90;;;;;;4998637;28;20269;-83
2023/09/03 04:01:14;;;;;;;13.67;8.20;;;13.20;99.90;;;;;;5030357;28;20214;-83
2023/09/03 04:03:41;;;;;;;15.37;8.03;;;13.10;99.90;;;;;;5011776;28;20633;-83
2023/09/03 04:06:08;;;;;;;14.80;7.60;;;13.00;99.90;;;;;;5022938;28;20230;-84
2023/09/03 04:08:37;;;;;;;17.80;8.37;;;13.00;99.90;;;;;;5010855;28;20205;-82
2023/09/03 04:11:06;;;;;;;13.10;7.20;;;13.00;99.90;;;;;;5013764;28;20218;-84
2023/09/03 04:13:33;;;;;;;12.30;7.83;;;12.90;99.90;;;;;;5018651;28;20209;-81
2023/09/03 04:16:04;;;;;;;12.53;6.63;;;12.90;99.90;;;;;;5020654;28;20268;-82
2023/09/03 04:18:31;;;;;;;12.60;7.60;;;12.90;99.90;;;;;;5011269;28;20202;-83
2023/09/03 04:20:58;;;;;;;13.40;7.80;;;13.00;99.90;;;;;;5027659;28;20201;-82
2023/09/03 04:23:25;;;;;;;15.27;8.60;;;12.80;99.90;;;;;;5030140;28;20342;-81
2023/09/03 04:25:53;;;;;;;13.10;7.53;;;12.80;99.90;;;;;;5029911;28;20237;-83
2023/09/03 04:28:20;;;;;;;12.80;8.13;;;12.80;99.90;;;;;;5029313;28;20256;-81
2023/09/03 04:30:55;;;;;;;13.33;7.77;;;12.80;99.90;;;;;;5029150;28;20202;-82
2023/09/03 04:33:23;;;;;;;13.63;8.00;;;12.80;99.90;;;;;;5029211;28;20300;-82
2023/09/03 04:36:01;;;;;;;14.07;7.67;;;12.80;99.90;;;;;;5023930;28;20226;-82
2023/09/03 04:38:29;;;;;;;10.67;6.97;;;12.80;99.90;;;;;;5010295;28;20214;-81
2023/09/03 04:40:56;;;;;;;15.47;8.40;;;12.80;99.90;;;;;;4992409;28;20555;-81
2023/09/03 04:43:24;;;;;;;14.57;8.37;;;12.80;99.90;;;;;;5010152;28;20277;-83
2023/09/03 04:45:52;;;;;;;14.87;8.23;;;12.80;99.90;;;;;;5025115;28;20225;-84
2023/09/03 04:48:20;;;;;;;15.70;7.97;;;12.80;99.90;;;;;;5029954;28;20217;-82
2023/09/03 04:50:48;;;;;;;16.87;8.83;;;12.80;99.90;;;;;;5026232;28;20237;-82
2023/09/03 04:53:15;;;;;;;15.20;8.50;;;12.90;99.90;;;;;;5027244;28;20285;-83
2023/09/03 04:55:42;;;;;;;15.73;8.63;;;13.00;99.90;;;;;;5021767;28;20198;-83
2023/09/03 04:58:09;;;;;;;15.23;8.63;;;12.90;99.90;;;;;;5023238;28;20273;-82
2023/09/03 05:00:36;;;;;;;16.03;9.37;;;12.90;99.90;;;;;;5027248;28;20251;-84
2023/09/03 05:03:04;;;;;;;15.50;9.07;;;12.90;99.90;;;;;;5026447;28;20213;-82
2023/09/03 05:05:39;;;;;;;15.23;9.13;;;12.90;99.90;;;;;;5024523;28;20236;-82
2023/09/03 05:08:08;;;;;;;17.07;8.73;;;13.20;99.90;;;;;;5023615;28;20210;-81
2023/09/03 05:10:35;;;;;;;17.23;9.00;;;12.90;99.90;;;;;;5019920;28;20206;-81
2023/09/03 05:13:04;;;;;;;14.77;8.63;;;13.00;99.90;;;;;;5014541;28;20186;-84
2023/09/03 05:15:31;;;;;;;18.03;9.40;;;13.00;99.90;;;;;;5011947;28;20566;-83
2023/09/03 05:18:01;;;;;;;14.70;8.30;;;13.10;99.90;;;;;;5011329;28;20228;-84
2023/09/03 05:20:28;;;;;;;16.53;8.47;;;13.10;99.90;;;;;;5029509;28;20268;-82
2023/09/03 05:22:55;;;;;;;15.60;8.03;;;13.10;99.90;;;;;;5028775;28;20206;-82
2023/09/03 05:25:22;;;;;;;19.73;9.13;;;13.10;99.90;;;;;;5021347;28;20206;-81
2023/09/03 05:27:49;;;;;;;17.70;9.40;;;13.30;99.90;;;;;;5027262;28;20202;-82
2023/09/03 05:30:16;;;;;;;17.37;8.07;;;13.50;99.90;;;;;;5029987;28;20346;-83
2023/09/03 05:32:43;;;;;;;15.03;8.37;;;13.20;99.90;;;;;;5025552;28;20206;-82
2023/09/03 05:35:10;;;;;;;15.47;8.27;;;13.30;99.90;;;;;;5029770;28;20221;-82
2023/09/03 05:37:37;;;;;;;15.97;8.40;;;13.30;99.90;;;;;;5030853;28;20622;-83
2023/09/03 05:40:07;;;;;;;16.77;9.33;;;13.40;99.90;;;;;;5019986;28;20666;-82
2023/09/03 05:42:34;;;;;;;17.30;9.27;;;13.40;99.90;;;;;;5027642;28;20557;-81
2023/09/03 05:45:00;;;;;;;16.00;8.57;;;13.50;99.90;;;;;;5027761;28;20217;-84
2023/09/03 05:47:27;;;;;;;16.67;8.77;;;13.60;99.90;;;;;;5028067;28;20221;-82
2023/09/03 05:49:56;;;;;;;16.60;8.57;;;13.60;99.90;;;;;;5021113;28;20297;-82
2023/09/03 05:52:24;;;;;;;14.20;9.07;;;13.70;99.90;;;;;;5012284;28;20320;-83
2023/09/03 05:54:51;;;;;;;14.40;8.70;;;14.20;99.90;;;;;;5013720;28;20218;-82
2023/09/03 05:57:18;;;;;;;15.67;8.90;;;13.90;99.90;;;;;;5006582;28;20202;-82
2023/09/03 05:59:50;;;;;;;18.17;9.37;;;13.80;99.90;;;;;;5021799;28;20207;-83
2023/09/03 06:02:17;;;;;;;19.33;9.80;;;14.00;99.90;;;;;;5030193;28;20206;-82
2023/09/03 06:04:44;;;;;;;16.67;9.30;;;14.10;99.90;;;;;;5029337;28;20205;-82
2023/09/03 06:07:11;;;;;;;16.03;8.90;;;14.20;99.90;;;;;;5029550;28;20265;-82
2023/09/03 06:09:38;;;;;;;16.93;9.23;;;14.30;99.90;;;;;;5023846;28;20198;-83
2023/09/03 06:12:05;;;;;;;13.47;7.77;;;14.40;99.90;;;;;;5018868;28;20209;-84
2023/09/03 06:14:32;;;;;;;12.87;8.10;;;14.50;99.90;;;;;;5004608;28;20231;-83
2023/09/03 06:16:59;;;;;;;12.40;8.17;;;14.60;99.90;;;;;;5020221;28;20577;-82
2023/09/03 06:19:26;;;;;;;13.97;8.30;;;14.60;99.90;;;;;;5011429;28;20198;-83
2023/09/03 06:21:53;;;;;;;11.07;7.53;;;14.70;99.90;;;;;;5029690;28;20210;-83
2023/09/03 06:24:20;;;;;;;13.00;7.93;;;14.80;99.90;;;;;;5027416;28;20404;-81
2023/09/03 06:26:46;;;;;;;12.27;8.03;;;14.90;99.90;;;;;;5025523;28;20235;-81
2023/09/03 06:29:13;;;;;;;15.23;8.93;;;14.70;99.90;;;;;;5016783;28;20239;-81
2023/09/03 06:31:40;;;;;;;16.93;9.67;;;15.10;99.90;;;;;;5027818;28;20214;-81
2023/09/03 06:34:07;;;;;;;12.88;9.05;;;15.10;99.90;;;;;;5023652;28;20213;-81
2023/09/03 06:36:34;;;;;;;14.73;9.20;;;15.30;99.90;;;;;;5020993;28;20202;-81
2023/09/03 06:39:02;;;;;;;17.75;9.55;;;15.40;99.90;;;;;;5029973;28;20209;-83
2023/09/03 06:41:29;;;;;;;13.95;8.85;;;15.50;99.90;;;;;;5030367;28;20229;-81
2023/09/03 06:43:56;;;;;;;13.77;8.55;;;15.50;99.90;;;;;;5027316;28;20617;-83
2023/09/03 06:46:23;;;;;;;12.70;8.15;;;15.70;99.90;;;;;;5017939;28;20230;-85
2023/09/03 06:48:49;;;;;;;13.27;9.00;;;15.90;99.90;;;;;;5028543;28;20206;-82
2023/09/03 06:51:19;;;;;;;13.95;8.80;;;;;;;;;;5001534;28;20214;-81
2023/09/03 06:53:46;;;;;;;12.70;8.60;;;16.10;99.90;;;;;;5028323;28;20230;-83
2023/09/03 06:56:13;;;;;;;16.55;10.20;;;16.20;99.90;;;;;;5009575;28;20202;-83
2023/09/03 06:58:41;;;;;;;15.30;9.00;;;16.30;99.90;;;;;;4995099;28;20530;-82
2023/09/03 07:01:08;;;;;;;11.65;8.43;;;16.50;99.90;;;;;;5023830;28;20615;-81
2023/09/03 07:03:34;;;;;;;12.50;8.50;;;16.60;99.90;;;;;;5025031;28;20582;-80
2023/09/03 07:06:01;;;;;;;11.10;7.65;;;16.80;99.90;;;;;;5011829;28;20237;-82
2023/09/03 07:08:29;;;;;;;13.13;8.50;;;16.90;99.90;;;;;;5018099;28;20251;-81
2023/09/03 07:11:00;;;;;;;12.70;8.77;;;17.10;99.90;;;;;;5012613;28;20213;-81
2023/09/03 07:13:27;;;;;;;12.02;8.13;;;17.20;99.90;;;;;;5028507;28;20229;-82
2023/09/03 07:15:53;;;;;;;13.07;8.70;;;17.30;99.90;;;;;;5027832;28;20599;-82
2023/09/03 07:18:20;;;;;;;13.20;8.88;;;17.60;99.90;;;;;;5028776;28;20575;-81
2023/09/03 07:20:47;;;;;;;12.65;8.60;;;17.80;99.90;;;;;;5021532;28;20210;-82
2023/09/03 07:23:14;;;;;;;11.85;7.97;;;18.20;99.90;;;;;;5027059;28;20219;-82
2023/09/03 07:25:42;;;;;;;12.45;8.55;;;18.70;99.90;;;;;;5023005;28;20207;-82
2023/09/03 07:28:08;;;;;;;11.73;8.45;;;19.10;99.90;;;;;;5009603;28;20747;-82
2023/09/03 07:30:35;;;;;;;13.07;8.57;;;19.50;99.90;;;;;;5023263;28;20293;-83
2023/09/03 07:33:02;;;;;;;12.10;8.65;;;19.70;99.90;;;;;;5014167;28;20222;-84
2023/09/03 07:35:31;;;;;;;10.73;7.80;;;19.80;99.90;;;;;;5023179;28;20301;-83
2023/09/03 07:37:58;;;;;;;12.40;8.30;;;19.90;99.90;;;;;;5007536;28;20590;-83
2023/09/03 07:40:28;;;;;;;11.63;8.07;;;20.00;99.90;;;;;;5020419;28;20202;-83
2023/09/03 07:42:55;;;;;;;11.68;8.00;;;20.20;99.90;;;;;;5029000;28;20226;-85
2023/09/03 07:45:25;;;;;;;11.82;8.43;;;20.30;99.90;;;;;;5021612;28;20659;-82
2023/09/03 07:47:52;;;;;;;11.77;7.63;;;20.40;99.90;;;;;;5023749;28;20226;-81
2023/09/03 07:50:19;;;;;;;11.75;8.27;;;20.40;99.90;;;;;;5029918;28;20218;-84
2023/09/03 07:52:46;;;;;;;11.02;8.50;;;20.50;99.90;;;;;;5030460;28;20213;-83
2023/09/03 07:55:13;;;;;;;11.07;8.50;;;20.60;99.90;;;;;;5000673;28;20627;-84
2023/09/03 07:57:40;;;;;;;12.50;8.70;;;20.80;99.90;;;;;;5033609;28;20602;-81
2023/09/03 08:00:07;;;;;;;9.73;7.25;;;21.00;99.90;;;;;;5024655;28;20233;-82
2023/09/03 08:02:34;;;;;;;10.45;6.88;;;21.30;99.90;;;;;;5022533;28;20281;-82
2023/09/03 08:05:01;;;;;;;9.30;7.03;;;21.60;99.90;;;;;;5030594;28;20198;-82
2023/09/03 08:07:28;;;;;;;12.05;7.43;;;22.00;99.90;;;;;;5028106;28;20303;-82
2023/09/03 08:09:55;;;;;;;9.57;7.30;;;;;;;;;;5029263;28;20202;-81
2023/09/03 08:12:22;;;;;;;10.13;6.97;;;23.00;99.90;;;;;;5001438;28;20637;-82
2023/09/03 08:14:49;;;;;;;8.90;6.47;;;23.50;99.90;;;;;;5032236;28;20193;-82
2023/09/03 08:17:16;;;;;;;10.18;7.10;;;24.00;99.90;;;;;;5034918;28;20650;-83
2023/09/03 08:19:43;;;;;;;8.63;7.55;;;24.50;99.90;;;;;;5015221;28;20233;-83
2023/09/03 08:22:10;;;;;;;9.50;6.45;;;24.90;99.90;;;;;;5026358;28;20210;-82
2023/09/03 08:24:37;;;;;;;8.13;6.70;;;25.10;99.90;;;;;;5029072;28;20213;-82
2023/09/03 08:27:04;;;;;;;7.45;5.80;;;25.30;99.90;;;;;;5010757;28;20855;-81
2023/09/03 08:29:30;;;;;;;7.65;6.18;;;25.40;99.90;;;;;;5019208;28;20211;-84
2023/09/03 08:31:57;;;;;;;6.05;5.43;;;25.60;99.90;;;;;;5027961;28;20201;-83
2023/09/03 08:34:27;;;;;;;6.35;5.28;;;25.70;99.90;;;;;;5012652;28;20289;-84
2023/09/03 08:36:54;;;;;;;6.30;5.50;;;25.90;99.90;;;;;;5025811;28;20624;-83
2023/09/03 08:39:21;;;;;;;7.10;5.05;;;25.90;99.90;;;;;;5021358;28;20289;-83
2023/09/03 08:41:48;;;;;;;7.30;5.35;;;25.90;99.90;;;;;;5029983;28;20209;-83
2023/09/03 08:44:31;;;;;;;7.30;6.25;;;25.70;99.90;;;;;;5029177;28;20443;-83
2023/09/03 08:47:03;;;;;;;8.05;6.15;;;25.60;99.90;;;;;;5015896;28;20221;-84
2023/09/03 08:49:33;;;;;;;7.43;5.47;;;25.30;99.90;;;;;;5011106;28;20211;-83
2023/09/03 08:52:01;;;;;;;8.02;5.18;;;25.10;99.90;;;;;;5021391;28;20229;-83
2023/09/03 08:54:28;;;;;;;7.88;5.63;;;24.90;99.90;;;;;;5019695;28;20297;-84
2023/09/03 08:56:57;;;;;;;6.78;5.82;;;24.70;99.90;;;;;;5024323;28;20687;-83
2023/09/03 08:59:24;;;;;;;6.75;5.38;;;24.70;99.90;;;;;;5029589;28;20205;-84
2023/09/03 09:01:53;;;;;;;7.28;5.68;;;24.80;99.90;;;;;;5028844;28;20205;-85
2023/09/03 09:04:20;;;;;;;7.38;6.00;;;24.70;99.90;;;;;;5036402;28;20248;-85
2023/09/03 09:06:49;;;;;;;6.93;5.60;;;24.70;99.90;;;;;;5026255;28;20593;-85
2023/09/03 09:09:16;;;;;;;6.72;5.68;;;24.70;99.90;;;;;;5016267;28;20502;-83
2023/09/03 09:11:53;;;;;;;7.07;5.70;;;24.60;99.90;;;;;;5013648;28;20198;-83
2023/09/03 09:14:28;;;;;;;7.30;5.85;;;24.50;99.90;;;;;;5009622;28;20197;-84
2023/09/03 09:16:54;;;;;;;7.00;5.53;;;24.50;99.90;;;;;;5022923;28;20217;-84
2023/09/03 09:19:26;;;;;;;7.28;5.38;;;24.60;99.90;;;;;;5013509;28;20210;-84
2023/09/03 09:21:53;;;;;;;8.27;6.38;;;24.70;99.90;;;;;;5007626;28;20217;-83
2023/09/03 09:24:20;;;;;;;7.70;6.07;;;24.90;99.90;;;;;;5029360;28;20206;-84
2023/09/03 09:26:47;;;;;;;9.10;5.80;;;24.80;99.90;;;;;;5029320;28;20221;-85
2023/09/03 09:29:14;;;;;;;8.35;5.75;;;24.70;99.90;;;;;;5022749;28;20670;-84
2023/09/03 09:31:41;;;;;;;8.18;5.65;;;24.70;99.90;;;;;;5015949;28;20210;-83
2023/09/03 09:34:12;;;;;;;6.57;5.32;;;24.80;99.90;;;;;;4993617;28;20221;-84
2023/09/03 09:36:53;;;;;;;8.07;5.63;;;24.70;99.90;;;;;;5010850;28;20216;-84
2023/09/03 09:39:20;;;;;;;6.65;5.40;;;24.70;99.90;;;;;;5012163;28;20202;-82
2023/09/03 09:42:06;;;;;;;7.15;5.35;;;24.60;99.90;;;;;;5031030;28;20705;-83
2023/09/03 09:44:33;;;;;;;7.03;5.20;;;24.60;99.90;;;;;;5012817;28;20296;-83
2023/09/03 09:47:15;;;;;;;6.30;5.35;;;24.60;99.90;;;;;;5030659;28;21050;-83
2023/09/03 09:49:48;;;;;;;6.18;5.57;;;24.50;99.90;;;;;;5013848;28;20228;-85
2023/09/03 09:52:16;;;;;;;9.20;6.20;;;24.60;99.90;;;;;;5025561;28;20199;-84
2023/09/03 09:54:44;;;;;;;7.78;5.50;;;24.80;99.90;;;;;;5004988;28;20210;-85
2023/09/03 09:57:15;;;;;;;8.57;6.10;;;24.80;99.90;;;;;;5029180;28;20307;-82
2023/09/03 09:59:43;;;;;;;6.97;5.10;;;24.70;99.90;;;;;;5029498;28;20252;-84
2023/09/03 10:02:14;;;;;;;6.30;4.90;;;24.50;99.90;;;;;;5016371;28;20248;-84
2023/09/03 10:04:46;;;;;;;7.68;4.30;;;24.60;99.90;;;;;;5010366;28;20213;-85
2023/09/03 10:07:13;;;;;;;5.32;4.25;;;24.70;99.90;;;;;;5011175;28;20325;-82
2023/09/03 10:09:42;;;;;;;5.80;4.43;;;24.70;99.90;;;;;;5011229;28;20190;-82
2023/09/03 10:12:10;;;;;;;5.57;4.40;;;24.90;99.90;;;;;;5014662;28;20213;-82
2023/09/03 10:14:39;;;;;;;6.95;5.13;;;24.90;99.90;;;;;;5012604;28;20198;-83
2023/09/03 10:17:07;;;;;;;6.38;4.03;;;25.10;99.90;;;;;;5015722;28;20198;-84
2023/09/03 10:19:53;;;;;;;7.00;4.70;;;24.90;99.90;;;;;;5015737;28;20695;-84
2023/09/03 10:22:23;;;;;;;6.15;4.57;;;24.70;99.90;;;;;;5012295;28;20718;-83
2023/09/03 10:24:58;;;;;;;6.63;4.63;;;24.50;99.90;;;;;;5023073;28;20282;-84
2023/09/03 10:27:31;;;;;;;8.30;4.68;;;24.50;99.90;;;;;;5030757;28;20244;-85
2023/09/03 10:30:03;;;;;;;4.63;4.13;;;24.50;99.90;;;;;;5029254;28;20630;-85
2023/09/03 10:32:30;;;;;;;5.93;3.97;;;24.50;99.90;;;;;;5000252;28;20214;-83
2023/09/03 10:34:57;;;;;;;3.85;3.25;;;24.60;99.90;;;;;;5025793;28;20237;-84
2023/09/03 10:37:36;;;;;;;4.70;3.58;;;24.60;99.90;;;;;;5030304;28;20206;-84
2023/09/03 10:40:29;;;;;;;3.92;3.00;;;24.60;99.90;;;;;;5011504;28;20226;-85
2023/09/03 10:43:14;;;;;;;3.78;2.35;;;24.50;99.90;;;;;;5028668;28;20407;-84
2023/09/03 10:46:04;;;;;;;4.03;2.67;;;24.50;99.90;;;;;;5010240;28;20566;-83
2023/09/03 10:48:34;;;;;;;3.75;3.33;;;24.50;99.90;;;;;;5005652;28;20240;-83
2023/09/03 10:51:02;;;;;;;3.25;2.42;;;24.50;99.90;;;;;;5029138;28;20708;-85
2023/09/03 10:53:39;;;;;;;2.53;2.17;;;24.50;99.90;;;;;;5022002;28;20218;-85
2023/09/03 10:56:10;;;;;;;2.47;1.92;;;24.50;99.90;;;;;;5022991;28;20198;-85
2023/09/03 10:58:59;;;;;;;3.55;2.30;;;24.40;99.90;;;;;;5014567;28;20309;-84
2023/09/03 11:01:31;;;;;;;2.10;1.70;;;24.50;99.90;;;;;;5014462;28;20209;-83
2023/09/03 11:04:07;;;;;;;4.50;1.98;;;24.50;99.90;;;;;;5015130;28;20236;-83
2023/09/03 11:06:35;;;;;;;2.10;1.90;;;24.60;99.90;;;;;;5023850;28;20206;-83
2023/09/03 11:09:06;;;;;;;2.13;1.88;;;24.60;99.90;;;;;;5022566;28;20230;-83
2023/09/03 11:11:35;;;;;;;3.13;2.50;;;24.70;99.90;;;;;;5013603;28;20227;-82
2023/09/03 11:14:03;;;;;;;4.70;2.88;;;24.70;99.90;;;;;;5017031;28;20213;-83
2023/09/03 11:16:32;;;;;;;5.22;3.35;;;24.80;99.90;;;;;;5015810;28;20202;-82
2023/09/03 11:19:00;;;;;;;4.07;2.95;;;24.70;99.90;;;;;;5032218;28;20203;-82
2023/09/03 11:21:27;;;;;;;6.32;4.28;;;24.70;99.90;;;;;;5011022;28;20212;-85
2023/09/03 11:24:05;;;;;;;3.92;2.80;;;24.70;99.90;;;;;;5013243;28;20222;-84
2023/09/03 11:26:34;;;;;;;2.72;1.90;;;24.60;99.90;;;;;;5012155;28;20217;-83
2023/09/03 11:29:02;;;;;;;5.57;3.40;;;24.60;99.90;;;;;;5013732;28;20229;-83
2023/09/03 11:31:29;;;;;;;4.18;2.67;;;24.60;99.90;;;;;;5013613;28;20657;-82
2023/09/03 11:33:57;;;;;;;2.92;1.95;;;24.50;99.90;;;;;;5013681;28;20717;-82
2023/09/03 11:36:27;;;;;;;1.92;1.73;;;24.60;99.90;;;;;;5030279;28;20836;-79
2023/09/03 11:38:56;;;;;;;2.30;2.00;;;24.70;99.90;;;;;;5032796;28;20279;-81
2023/09/03 11:41:23;;;;;;;4.30;3.10;;;24.70;99.90;;;;;;5033762;28;20208;-84
2023/09/03 11:43:51;;;;;;;2.80;1.52;;;24.80;99.90;;;;;;5031916;28;20234;-82
2023/09/03 11:46:18;;;;;;;3.88;1.70;;;24.80;99.90;;;;;;5032702;28;20244;-82
2023/09/03 11:48:51;;;;;;;2.95;1.85;;;25.00;99.90;;;;;;5033235;28;20230;-81
2023/09/03 11:51:28;;;;;;;4.15;2.00;;;25.00;99.90;;;;;;5016102;28;20220;-82
2023/09/03 11:53:56;;;;;;;2.30;1.80;;;25.00;99.90;;;;;;5031523;28;20236;-81
2023/09/03 11:56:25;;;;;;;2.22;1.83;;;24.90;99.90;;;;;;5020515;28;20745;-82
2023/09/03 11:58:57;;;;;;;2.15;1.95;;;25.00;99.90;;;;;;5031570;28;20301;-84
2023/09/03 12:01:24;;;;;;;2.40;1.70;;;25.00;99.90;;;;;;5023343;28;20218;-83
2023/09/03 12:03:52;;;;;;;2.00;1.67;;;25.00;99.90;;;;;;5028141;28;20286;-85
2023/09/03 12:06:21;;;;;;;2.85;1.50;;;24.90;99.90;;;;;;5032979;28;20218;-85
2023/09/03 12:08:48;;;;;;;1.48;1.38;;;24.80;99.90;;;;;;5010736;28;20359;-86
2023/09/03 12:11:16;;;;;;;2.45;1.30;;;24.70;99.90;;;;;;5011705;28;20226;-84
2023/09/03 12:13:44;;;;;;;2.92;1.70;;;24.60;99.90;;;;;;5016030;28;20210;-85
2023/09/03 12:16:16;;;;;;;2.15;1.02;;;24.60;99.90;;;;;;5031272;28;20214;-85
2023/09/03 12:19:01;;;;;;;1.90;1.20;;;24.60;99.90;;;;;;5017268;28;20298;-85
2023/09/03 12:21:36;;;;;;;1.77;1.05;;;24.70;99.90;;;;;;5033159;28;20202;-85
2023/09/03 12:24:07;;;;;;;1.55;1.20;;;24.90;99.90;;;;;;5026169;28;20229;-83
2023/09/03 12:26:35;;;;;;;1.40;1.05;;;24.90;99.90;;;;;;5008121;28;20213;-86
2023/09/03 12:29:04;;;;;;;1.80;0.95;;;25.00;99.90;;;;;;5006098;28;20328;-79
